Nodine, Minnesota
Current Conditions -  °F | °C
As of 3:53 AM on Monday 26 Jan 2015 (Local Time) from KLSE Reporting Station
Overcast Overcast  
Wind Chill: 12°   Ceiling: 2200
Heat Index: 23°   Visibility: 10mi
Dew Point: 14°   Wind: 12mph
Humidity: 68%   Direction: 170°S
Pressure: 29.94"   Gusts: NA
Location:  43.9163°N, 91.4255°W
Report Text: KLSE 260953Z AUTO 17010KT 10SM OVC022 M05/M10 A2994 RMK AO2 SLP152 T10501100
Loading
Personal Weather Stations






























Interactive Weather Map New forecast layout! Learn more

10-Day Weather Forecast

Advertisements
Track Severe Weather on mobile